sensor_id;sensor_type;location;lat;lon;timestamp;P1;durP1;ratioP1;P2;durP2;ratioP2
18610;SDS011;9435;52.122;5.502;2023-03-16T00:02:21;10.40;;;4.30;;
18610;SDS011;9435;52.122;5.502;2023-03-16T00:04:49;9.32;;;4.40;;
18610;SDS011;9435;52.122;5.502;2023-03-16T00:07:16;8.25;;;4.40;;
18610;SDS011;9435;52.122;5.502;2023-03-16T00:09:43;9.40;;;4.45;;
18610;SDS011;9435;52.122;5.502;2023-03-16T00:12:13;13.60;;;4.68;;
18610;SDS011;9435;52.122;5.502;2023-03-16T00:14:43;10.02;;;4.60;;
18610;SDS011;9435;52.122;5.502;2023-03-16T00:17:11;9.95;;;4.78;;
18610;SDS011;9435;52.122;5.502;2023-03-16T00:19:43;7.45;;;4.50;;
18610;SDS011;9435;52.122;5.502;2023-03-16T00:22:12;10.88;;;4.40;;
18610;SDS011;9435;52.122;5.502;2023-03-16T00:24:40;10.68;;;4.90;;
18610;SDS011;9435;52.122;5.502;2023-03-16T00:27:08;9.80;;;4.90;;
18610;SDS011;9435;52.122;5.502;2023-03-16T00:29:41;10.48;;;5.03;;
18610;SDS011;9435;52.122;5.502;2023-03-16T00:32:13;9.20;;;4.80;;
18610;SDS011;9435;52.122;5.502;2023-03-16T00:34:41;9.18;;;4.65;;
18610;SDS011;9435;52.122;5.502;2023-03-16T00:37:09;7.70;;;4.65;;
18610;SDS011;9435;52.122;5.502;2023-03-16T00:39:38;10.25;;;4.93;;
18610;SDS011;9435;52.122;5.502;2023-03-16T00:42:06;9.20;;;5.10;;
18610;SDS011;9435;52.122;5.502;2023-03-16T00:44:33;10.73;;;5.10;;
18610;SDS011;9435;52.122;5.502;2023-03-16T00:47:02;15.70;;;5.10;;
18610;SDS011;9435;52.122;5.502;2023-03-16T00:49:29;14.43;;;5.40;;
18610;SDS011;9435;52.122;5.502;2023-03-16T00:51:59;10.07;;;5.22;;
18610;SDS011;9435;52.122;5.502;2023-03-16T00:54:27;11.93;;;5.35;;
18610;SDS011;9435;52.122;5.502;2023-03-16T00:56:54;10.52;;;4.93;;
18610;SDS011;9435;52.122;5.502;2023-03-16T00:59:23;8.93;;;5.20;;
18610;SDS011;9435;52.122;5.502;2023-03-16T01:01:51;9.88;;;5.30;;
18610;SDS011;9435;52.122;5.502;2023-03-16T01:04:20;11.07;;;5.40;;
18610;SDS011;9435;52.122;5.502;2023-03-16T01:06:48;11.75;;;5.90;;
18610;SDS011;9435;52.122;5.502;2023-03-16T01:09:17;12.02;;;5.38;;
18610;SDS011;9435;52.122;5.502;2023-03-16T01:11:44;12.82;;;5.90;;
18610;SDS011;9435;52.122;5.502;2023-03-16T01:14:14;10.32;;;5.80;;
18610;SDS011;9435;52.122;5.502;2023-03-16T01:16:41;12.93;;;5.57;;
18610;SDS011;9435;52.122;5.502;2023-03-16T01:19:09;11.27;;;5.25;;
18610;SDS011;9435;52.122;5.502;2023-03-16T01:21:39;10.98;;;5.40;;
18610;SDS011;9435;52.122;5.502;2023-03-16T01:24:07;10.55;;;5.80;;
18610;SDS011;9435;52.122;5.502;2023-03-16T01:26:34;10.30;;;5.72;;
18610;SDS011;9435;52.122;5.502;2023-03-16T01:29:01;11.00;;;5.50;;
18610;SDS011;9435;52.122;5.502;2023-03-16T01:31:28;9.85;;;5.55;;
18610;SDS011;9435;52.122;5.502;2023-03-16T01:33:56;10.32;;;5.70;;
18610;SDS011;9435;52.122;5.502;2023-03-16T01:36:23;12.05;;;5.93;;
18610;SDS011;9435;52.122;5.502;2023-03-16T01:38:52;11.15;;;5.68;;
18610;SDS011;9435;52.122;5.502;2023-03-16T01:41:19;9.93;;;5.68;;
18610;SDS011;9435;52.122;5.502;2023-03-16T01:43:46;9.98;;;5.70;;
18610;SDS011;9435;52.122;5.502;2023-03-16T01:46:15;11.90;;;5.97;;
18610;SDS011;9435;52.122;5.502;2023-03-16T01:48:55;11.68;;;5.82;;
18610;SDS011;9435;52.122;5.502;2023-03-16T01:51:28;12.70;;;5.85;;
18610;SDS011;9435;52.122;5.502;2023-03-16T01:54:02;11.82;;;5.88;;
18610;SDS011;9435;52.122;5.502;2023-03-16T01:56:34;11.57;;;5.95;;
18610;SDS011;9435;52.122;5.502;2023-03-16T01:59:08;12.23;;;5.88;;
18610;SDS011;9435;52.122;5.502;2023-03-16T02:01:39;10.55;;;6.00;;
18610;SDS011;9435;52.122;5.502;2023-03-16T02:04:13;10.35;;;6.07;;
18610;SDS011;9435;52.122;5.502;2023-03-16T02:06:48;12.25;;;6.10;;
18610;SDS011;9435;52.122;5.502;2023-03-16T02:09:16;13.18;;;6.07;;
18610;SDS011;9435;52.122;5.502;2023-03-16T02:11:44;11.88;;;5.65;;
18610;SDS011;9435;52.122;5.502;2023-03-16T02:14:12;11.50;;;5.53;;
18610;SDS011;9435;52.122;5.502;2023-03-16T02:16:39;13.50;;;6.13;;
18610;SDS011;9435;52.122;5.502;2023-03-16T02:19:08;12.18;;;6.38;;
18610;SDS011;9435;52.122;5.502;2023-03-16T02:21:41;11.60;;;6.40;;
18610;SDS011;9435;52.122;5.502;2023-03-16T02:24:20;13.18;;;6.07;;
18610;SDS011;9435;52.122;5.502;2023-03-16T02:26:48;11.88;;;6.20;;
18610;SDS011;9435;52.122;5.502;2023-03-16T02:29:23;13.15;;;5.68;;
18610;SDS011;9435;52.122;5.502;2023-03-16T02:31:58;9.85;;;6.00;;
18610;SDS011;9435;52.122;5.502;2023-03-16T02:34:26;10.75;;;5.90;;
18610;SDS011;9435;52.122;5.502;2023-03-16T02:36:55;10.73;;;5.70;;
18610;SDS011;9435;52.122;5.502;2023-03-16T02:39:23;11.90;;;5.80;;
18610;SDS011;9435;52.122;5.502;2023-03-16T02:41:50;13.82;;;6.20;;
18610;SDS011;9435;52.122;5.502;2023-03-16T02:44:19;11.93;;;6.05;;
18610;SDS011;9435;52.122;5.502;2023-03-16T02:46:50;10.18;;;6.00;;
18610;SDS011;9435;52.122;5.502;2023-03-16T02:49:22;10.63;;;5.93;;
18610;SDS011;9435;52.122;5.502;2023-03-16T02:51:53;11.30;;;6.10;;
18610;SDS011;9435;52.122;5.502;2023-03-16T02:54:21;11.73;;;5.85;;
18610;SDS011;9435;52.122;5.502;2023-03-16T02:56:49;11.00;;;5.90;;
18610;SDS011;9435;52.122;5.502;2023-03-16T02:59:16;13.30;;;5.95;;
18610;SDS011;9435;52.122;5.502;2023-03-16T03:01:43;9.80;;;5.93;;
18610;SDS011;9435;52.122;5.502;2023-03-16T03:04:10;10.77;;;5.97;;
18610;SDS011;9435;52.122;5.502;2023-03-16T03:06:38;12.52;;;6.20;;
18610;SDS011;9435;52.122;5.502;2023-03-16T03:09:06;13.13;;;6.22;;
18610;SDS011;9435;52.122;5.502;2023-03-16T03:11:35;11.32;;;5.63;;
18610;SDS011;9435;52.122;5.502;2023-03-16T03:14:03;12.73;;;5.82;;
18610;SDS011;9435;52.122;5.502;2023-03-16T03:16:30;11.38;;;6.50;;
18610;SDS011;9435;52.122;5.502;2023-03-16T03:18:57;11.48;;;6.18;;
18610;SDS011;9435;52.122;5.502;2023-03-16T03:21:25;14.00;;;6.28;;
18610;SDS011;9435;52.122;5.502;2023-03-16T03:23:54;10.80;;;6.00;;
18610;SDS011;9435;52.122;5.502;2023-03-16T03:26:21;10.55;;;5.90;;
18610;SDS011;9435;52.122;5.502;2023-03-16T03:28:48;11.55;;;5.80;;
18610;SDS011;9435;52.122;5.502;2023-03-16T03:31:17;12.55;;;6.47;;
18610;SDS011;9435;52.122;5.502;2023-03-16T03:33:45;14.82;;;6.35;;
18610;SDS011;9435;52.122;5.502;2023-03-16T03:36:13;11.80;;;5.90;;
18610;SDS011;9435;52.122;5.502;2023-03-16T03:38:40;10.55;;;6.00;;
18610;SDS011;9435;52.122;5.502;2023-03-16T03:41:09;10.32;;;6.13;;
18610;SDS011;9435;52.122;5.502;2023-03-16T03:43:36;11.13;;;6.10;;
18610;SDS011;9435;52.122;5.502;2023-03-16T03:46:04;12.05;;;6.10;;
18610;SDS011;9435;52.122;5.502;2023-03-16T03:48:31;13.30;;;6.28;;
18610;SDS011;9435;52.122;5.502;2023-03-16T03:50:59;12.57;;;6.13;;
18610;SDS011;9435;52.122;5.502;2023-03-16T03:53:26;11.60;;;6.72;;
18610;SDS011;9435;52.122;5.502;2023-03-16T03:55:53;13.10;;;6.20;;
18610;SDS011;9435;52.122;5.502;2023-03-16T03:58:21;13.05;;;6.70;;
18610;SDS011;9435;52.122;5.502;2023-03-16T04:00:48;13.18;;;6.47;;
18610;SDS011;9435;52.122;5.502;2023-03-16T04:03:16;11.40;;;6.53;;
18610;SDS011;9435;52.122;5.502;2023-03-16T04:05:43;13.60;;;6.32;;
18610;SDS011;9435;52.122;5.502;2023-03-16T04:08:10;12.82;;;6.35;;
18610;SDS011;9435;52.122;5.502;2023-03-16T04:10:37;12.93;;;6.40;;
18610;SDS011;9435;52.122;5.502;2023-03-16T04:13:05;12.35;;;6.53;;
18610;SDS011;9435;52.122;5.502;2023-03-16T04:15:33;12.48;;;6.50;;
18610;SDS011;9435;52.122;5.502;2023-03-16T04:18:02;14.65;;;6.30;;
18610;SDS011;9435;52.122;5.502;2023-03-16T04:20:29;13.80;;;6.43;;
18610;SDS011;9435;52.122;5.502;2023-03-16T04:22:58;15.63;;;6.32;;
18610;SDS011;9435;52.122;5.502;2023-03-16T04:25:29;12.30;;;6.20;;
18610;SDS011;9435;52.122;5.502;2023-03-16T04:27:56;13.23;;;6.53;;
18610;SDS011;9435;52.122;5.502;2023-03-16T04:30:23;13.02;;;6.18;;
18610;SDS011;9435;52.122;5.502;2023-03-16T04:32:51;15.85;;;6.63;;
18610;SDS011;9435;52.122;5.502;2023-03-16T04:35:19;13.45;;;6.53;;
18610;SDS011;9435;52.122;5.502;2023-03-16T04:37:46;12.07;;;5.93;;
18610;SDS011;9435;52.122;5.502;2023-03-16T04:40:13;14.13;;;6.63;;
18610;SDS011;9435;52.122;5.502;2023-03-16T04:42:43;13.30;;;6.47;;
18610;SDS011;9435;52.122;5.502;2023-03-16T04:45:12;16.13;;;7.03;;
18610;SDS011;9435;52.122;5.502;2023-03-16T04:47:40;13.18;;;6.47;;
18610;SDS011;9435;52.122;5.502;2023-03-16T04:50:09;14.05;;;6.63;;
18610;SDS011;9435;52.122;5.502;2023-03-16T04:52:36;13.07;;;6.60;;
18610;SDS011;9435;52.122;5.502;2023-03-16T04:55:04;15.20;;;6.47;;
18610;SDS011;9435;52.122;5.502;2023-03-16T04:57:31;14.60;;;6.63;;
18610;SDS011;9435;52.122;5.502;2023-03-16T04:59:59;14.20;;;6.70;;
18610;SDS011;9435;52.122;5.502;2023-03-16T05:02:27;11.13;;;6.18;;
18610;SDS011;9435;52.122;5.502;2023-03-16T05:04:54;12.30;;;6.05;;
18610;SDS011;9435;52.122;5.502;2023-03-16T05:07:22;12.27;;;5.93;;
18610;SDS011;9435;52.122;5.502;2023-03-16T05:09:50;10.77;;;5.70;;
18610;SDS011;9435;52.122;5.502;2023-03-16T05:12:17;12.68;;;6.00;;
18610;SDS011;9435;52.122;5.502;2023-03-16T05:14:44;10.82;;;5.57;;
18610;SDS011;9435;52.122;5.502;2023-03-16T05:17:11;14.02;;;5.65;;
18610;SDS011;9435;52.122;5.502;2023-03-16T05:19:39;10.85;;;5.60;;
18610;SDS011;9435;52.122;5.502;2023-03-16T05:22:07;10.65;;;5.78;;
18610;SDS011;9435;52.122;5.502;2023-03-16T05:24:35;12.23;;;5.78;;
18610;SDS011;9435;52.122;5.502;2023-03-16T05:27:03;11.55;;;5.75;;
18610;SDS011;9435;52.122;5.502;2023-03-16T05:29:30;11.25;;;5.80;;
18610;SDS011;9435;52.122;5.502;2023-03-16T05:31:57;12.10;;;5.80;;
18610;SDS011;9435;52.122;5.502;2023-03-16T05:34:24;12.30;;;5.97;;
18610;SDS011;9435;52.122;5.502;2023-03-16T05:36:52;12.40;;;5.63;;
18610;SDS011;9435;52.122;5.502;2023-03-16T05:39:19;11.88;;;5.70;;
18610;SDS011;9435;52.122;5.502;2023-03-16T05:41:48;11.13;;;5.65;;
18610;SDS011;9435;52.122;5.502;2023-03-16T05:44:16;11.13;;;5.63;;
18610;SDS011;9435;52.122;5.502;2023-03-16T05:46:43;13.30;;;6.28;;
18610;SDS011;9435;52.122;5.502;2023-03-16T05:49:10;10.48;;;5.50;;
18610;SDS011;9435;52.122;5.502;2023-03-16T05:51:38;12.00;;;5.95;;
18610;SDS011;9435;52.122;5.502;2023-03-16T05:54:05;11.20;;;5.80;;
18610;SDS011;9435;52.122;5.502;2023-03-16T05:56:32;12.07;;;5.65;;
18610;SDS011;9435;52.122;5.502;2023-03-16T05:59:01;11.25;;;5.70;;
18610;SDS011;9435;52.122;5.502;2023-03-16T06:01:28;10.98;;;5.68;;
18610;SDS011;9435;52.122;5.502;2023-03-16T06:03:55;12.10;;;6.05;;
18610;SDS011;9435;52.122;5.502;2023-03-16T06:06:22;11.82;;;5.63;;
18610;SDS011;9435;52.122;5.502;2023-03-16T06:08:49;10.90;;;5.68;;
18610;SDS011;9435;52.122;5.502;2023-03-16T06:11:16;11.48;;;5.47;;
18610;SDS011;9435;52.122;5.502;2023-03-16T06:13:43;14.73;;;5.45;;
18610;SDS011;9435;52.122;5.502;2023-03-16T06:16:12;10.77;;;5.13;;
18610;SDS011;9435;52.122;5.502;2023-03-16T06:18:40;12.43;;;5.60;;
18610;SDS011;9435;52.122;5.502;2023-03-16T06:21:09;11.70;;;5.20;;
18610;SDS011;9435;52.122;5.502;2023-03-16T06:23:36;10.73;;;5.45;;
18610;SDS011;9435;52.122;5.502;2023-03-16T06:26:21;11.45;;;5.30;;
18610;SDS011;9435;52.122;5.502;2023-03-16T06:28:48;11.30;;;5.00;;
18610;SDS011;9435;52.122;5.502;2023-03-16T06:31:17;8.90;;;5.28;;
18610;SDS011;9435;52.122;5.502;2023-03-16T06:33:44;13.60;;;5.32;;
18610;SDS011;9435;52.122;5.502;2023-03-16T06:36:11;10.48;;;5.13;;
18610;SDS011;9435;52.122;5.502;2023-03-16T06:38:39;10.80;;;5.07;;
18610;SDS011;9435;52.122;5.502;2023-03-16T06:41:06;10.73;;;4.90;;
18610;SDS011;9435;52.122;5.502;2023-03-16T06:43:33;11.52;;;5.05;;
18610;SDS011;9435;52.122;5.502;2023-03-16T06:46:00;10.70;;;4.93;;
18610;SDS011;9435;52.122;5.502;2023-03-16T06:48:28;10.63;;;5.28;;
18610;SDS011;9435;52.122;5.502;2023-03-16T06:50:55;10.55;;;4.97;;
18610;SDS011;9435;52.122;5.502;2023-03-16T06:53:22;14.40;;;5.80;;
18610;SDS011;9435;52.122;5.502;2023-03-16T06:55:49;9.93;;;4.90;;
18610;SDS011;9435;52.122;5.502;2023-03-16T06:58:16;10.32;;;5.30;;
18610;SDS011;9435;52.122;5.502;2023-03-16T07:00:44;10.45;;;5.38;;
18610;SDS011;9435;52.122;5.502;2023-03-16T07:03:11;12.75;;;5.60;;
18610;SDS011;9435;52.122;5.502;2023-03-16T07:05:39;12.45;;;5.32;;
18610;SDS011;9435;52.122;5.502;2023-03-16T07:08:06;12.57;;;5.38;;
18610;SDS011;9435;52.122;5.502;2023-03-16T07:10:34;10.15;;;5.35;;
18610;SDS011;9435;52.122;5.502;2023-03-16T07:13:01;11.45;;;4.70;;
18610;SDS011;9435;52.122;5.502;2023-03-16T07:15:28;9.60;;;5.00;;
18610;SDS011;9435;52.122;5.502;2023-03-16T07:17:55;8.90;;;4.90;;
18610;SDS011;9435;52.122;5.502;2023-03-16T07:20:22;11.52;;;5.25;;
18610;SDS011;9435;52.122;5.502;2023-03-16T07:22:52;9.35;;;4.78;;
18610;SDS011;9435;52.122;5.502;2023-03-16T07:25:19;12.57;;;5.05;;
18610;SDS011;9435;52.122;5.502;2023-03-16T07:27:46;11.95;;;5.43;;
18610;SDS011;9435;52.122;5.502;2023-03-16T07:30:13;11.15;;;5.15;;
18610;SDS011;9435;52.122;5.502;2023-03-16T07:32:40;12.13;;;5.03;;
18610;SDS011;9435;52.122;5.502;2023-03-16T07:35:08;11.80;;;5.32;;
18610;SDS011;9435;52.122;5.502;2023-03-16T07:37:36;12.40;;;5.10;;
18610;SDS011;9435;52.122;5.502;2023-03-16T07:40:05;9.65;;;4.90;;
18610;SDS011;9435;52.122;5.502;2023-03-16T07:42:33;8.77;;;4.65;;
18610;SDS011;9435;52.122;5.502;2023-03-16T07:45:00;10.40;;;5.05;;
18610;SDS011;9435;52.122;5.502;2023-03-16T07:47:27;12.95;;;5.15;;
18610;SDS011;9435;52.122;5.502;2023-03-16T07:49:55;9.18;;;4.72;;
18610;SDS011;9435;52.122;5.502;2023-03-16T07:52:23;9.10;;;4.90;;
18610;SDS011;9435;52.122;5.502;2023-03-16T07:54:50;12.63;;;5.38;;
18610;SDS011;9435;52.122;5.502;2023-03-16T07:57:18;10.35;;;5.05;;
18610;SDS011;9435;52.122;5.502;2023-03-16T07:59:46;11.52;;;4.80;;
18610;SDS011;9435;52.122;5.502;2023-03-16T08:02:14;10.27;;;4.90;;
18610;SDS011;9435;52.122;5.502;2023-03-16T08:04:42;8.80;;;4.50;;
18610;SDS011;9435;52.122;5.502;2023-03-16T08:07:10;11.25;;;4.85;;
18610;SDS011;9435;52.122;5.502;2023-03-16T08:09:38;10.20;;;4.72;;
18610;SDS011;9435;52.122;5.502;2023-03-16T08:12:06;11.15;;;4.63;;
18610;SDS011;9435;52.122;5.502;2023-03-16T08:14:35;10.23;;;5.28;;
18610;SDS011;9435;52.122;5.502;2023-03-16T08:17:02;9.48;;;4.90;;
18610;SDS011;9435;52.122;5.502;2023-03-16T08:19:31;10.00;;;5.07;;
18610;SDS011;9435;52.122;5.502;2023-03-16T08:21:58;12.00;;;5.38;;
18610;SDS011;9435;52.122;5.502;2023-03-16T08:24:26;11.32;;;5.07;;
18610;SDS011;9435;52.122;5.502;2023-03-16T08:26:53;9.38;;;5.38;;
18610;SDS011;9435;52.122;5.502;2023-03-16T08:29:21;11.57;;;5.05;;
18610;SDS011;9435;52.122;5.502;2023-03-16T08:31:50;15.32;;;5.20;;
18610;SDS011;9435;52.122;5.502;2023-03-16T08:34:18;10.27;;;4.75;;
18610;SDS011;9435;52.122;5.502;2023-03-16T08:36:45;9.25;;;5.05;;
18610;SDS011;9435;52.122;5.502;2023-03-16T08:39:12;12.07;;;5.10;;
18610;SDS011;9435;52.122;5.502;2023-03-16T08:41:40;9.48;;;4.82;;
18610;SDS011;9435;52.122;5.502;2023-03-16T08:44:07;11.93;;;5.05;;
18610;SDS011;9435;52.122;5.502;2023-03-16T08:46:34;10.00;;;4.63;;
18610;SDS011;9435;52.122;5.502;2023-03-16T08:49:03;9.98;;;4.47;;
18610;SDS011;9435;52.122;5.502;2023-03-16T08:51:30;8.90;;;4.38;;
18610;SDS011;9435;52.122;5.502;2023-03-16T08:53:58;7.80;;;4.35;;
18610;SDS011;9435;52.122;5.502;2023-03-16T08:56:25;9.55;;;4.70;;
18610;SDS011;9435;52.122;5.502;2023-03-16T08:58:52;11.18;;;4.88;;
18610;SDS011;9435;52.122;5.502;2023-03-16T09:01:20;10.05;;;4.93;;
18610;SDS011;9435;52.122;5.502;2023-03-16T09:03:47;10.50;;;4.78;;
18610;SDS011;9435;52.122;5.502;2023-03-16T09:06:16;9.23;;;4.65;;
18610;SDS011;9435;52.122;5.502;2023-03-16T09:08:44;10.32;;;4.80;;
18610;SDS011;9435;52.122;5.502;2023-03-16T09:11:12;9.93;;;4.65;;
18610;SDS011;9435;52.122;5.502;2023-03-16T09:13:40;10.90;;;5.00;;
18610;SDS011;9435;52.122;5.502;2023-03-16T09:16:09;8.23;;;4.35;;
18610;SDS011;9435;52.122;5.502;2023-03-16T09:18:38;9.20;;;4.72;;
18610;SDS011;9435;52.122;5.502;2023-03-16T09:21:06;11.90;;;4.65;;
18610;SDS011;9435;52.122;5.502;2023-03-16T09:23:39;8.48;;;4.05;;
18610;SDS011;9435;52.122;5.502;2023-03-16T09:26:07;10.80;;;4.45;;
18610;SDS011;9435;52.122;5.502;2023-03-16T09:28:36;8.40;;;4.53;;
18610;SDS011;9435;52.122;5.502;2023-03-16T09:31:06;8.02;;;4.20;;
18610;SDS011;9435;52.122;5.502;2023-03-16T09:33:34;8.77;;;4.40;;
18610;SDS011;9435;52.122;5.502;2023-03-16T09:36:01;8.20;;;4.43;;
18610;SDS011;9435;52.122;5.502;2023-03-16T09:38:29;10.00;;;4.75;;
18610;SDS011;9435;52.122;5.502;2023-03-16T09:40:59;6.97;;;4.00;;
18610;SDS011;9435;52.122;5.502;2023-03-16T09:43:33;9.82;;;4.60;;
18610;SDS011;9435;52.122;5.502;2023-03-16T09:46:10;8.98;;;4.40;;
18610;SDS011;9435;52.122;5.502;2023-03-16T09:48:40;8.43;;;4.53;;
18610;SDS011;9435;52.122;5.502;2023-03-16T09:51:11;7.95;;;4.25;;
18610;SDS011;9435;52.122;5.502;2023-03-16T09:53:43;7.78;;;4.40;;
18610;SDS011;9435;52.122;5.502;2023-03-16T09:56:18;19.30;;;4.97;;
18610;SDS011;9435;52.122;5.502;2023-03-16T09:58:52;7.43;;;4.45;;
18610;SDS011;9435;52.122;5.502;2023-03-16T10:01:22;8.90;;;4.53;;
18610;SDS011;9435;52.122;5.502;2023-03-16T10:04:02;10.38;;;4.15;;
18610;SDS011;9435;52.122;5.502;2023-03-16T10:06:42;10.40;;;4.45;;
18610;SDS011;9435;52.122;5.502;2023-03-16T10:09:16;11.05;;;4.68;;
18610;SDS011;9435;52.122;5.502;2023-03-16T10:11:54;7.82;;;3.88;;
18610;SDS011;9435;52.122;5.502;2023-03-16T10:14:24;9.77;;;4.35;;
18610;SDS011;9435;52.122;5.502;2023-03-16T10:16:56;10.40;;;4.10;;
18610;SDS011;9435;52.122;5.502;2023-03-16T10:19:29;9.93;;;4.40;;
18610;SDS011;9435;52.122;5.502;2023-03-16T10:22:07;11.13;;;4.53;;
18610;SDS011;9435;52.122;5.502;2023-03-16T10:24:47;8.90;;;3.90;;
18610;SDS011;9435;52.122;5.502;2023-03-16T10:27:27;8.45;;;4.03;;
18610;SDS011;9435;52.122;5.502;2023-03-16T10:29:56;8.23;;;3.90;;
18610;SDS011;9435;52.122;5.502;2023-03-16T10:32:28;7.22;;;3.88;;
18610;SDS011;9435;52.122;5.502;2023-03-16T10:35:00;9.57;;;4.10;;
18610;SDS011;9435;52.122;5.502;2023-03-16T10:37:31;6.95;;;3.78;;
18610;SDS011;9435;52.122;5.502;2023-03-16T10:39:58;7.93;;;4.07;;
18610;SDS011;9435;52.122;5.502;2023-03-16T10:42:27;7.70;;;3.83;;
18610;SDS011;9435;52.122;5.502;2023-03-16T10:44:58;9.35;;;4.00;;
18610;SDS011;9435;52.122;5.502;2023-03-16T10:47:27;8.55;;;3.60;;
18610;SDS011;9435;52.122;5.502;2023-03-16T10:49:56;7.82;;;4.00;;
18610;SDS011;9435;52.122;5.502;2023-03-16T10:52:24;7.50;;;3.90;;
18610;SDS011;9435;52.122;5.502;2023-03-16T10:54:59;7.15;;;3.80;;
18610;SDS011;9435;52.122;5.502;2023-03-16T10:57:34;6.60;;;3.63;;
18610;SDS011;9435;52.122;5.502;2023-03-16T11:00:05;10.77;;;4.10;;
18610;SDS011;9435;52.122;5.502;2023-03-16T11:02:38;7.18;;;3.70;;
18610;SDS011;9435;52.122;5.502;2023-03-16T11:05:13;7.93;;;3.67;;
18610;SDS011;9435;52.122;5.502;2023-03-16T11:07:46;8.45;;;4.00;;
18610;SDS011;9435;52.122;5.502;2023-03-16T11:10:23;6.22;;;3.70;;
18610;SDS011;9435;52.122;5.502;2023-03-16T11:12:59;7.97;;;3.75;;
18610;SDS011;9435;52.122;5.502;2023-03-16T11:15:32;9.80;;;3.90;;
18610;SDS011;9435;52.122;5.502;2023-03-16T11:18:02;7.20;;;3.78;;
18610;SDS011;9435;52.122;5.502;2023-03-16T11:20:29;8.38;;;3.80;;
18610;SDS011;9435;52.122;5.502;2023-03-16T11:22:59;9.57;;;3.72;;
18610;SDS011;9435;52.122;5.502;2023-03-16T11:25:27;8.02;;;3.75;;
18610;SDS011;9435;52.122;5.502;2023-03-16T11:28:02;6.47;;;3.35;;
18610;SDS011;9435;52.122;5.502;2023-03-16T11:30:38;6.38;;;3.45;;
18610;SDS011;9435;52.122;5.502;2023-03-16T11:33:08;11.40;;;3.22;;
18610;SDS011;9435;52.122;5.502;2023-03-16T11:35:40;6.00;;;3.20;;
18610;SDS011;9435;52.122;5.502;2023-03-16T11:38:15;6.20;;;3.20;;
18610;SDS011;9435;52.122;5.502;2023-03-16T11:40:47;7.15;;;3.25;;
18610;SDS011;9435;52.122;5.502;2023-03-16T11:43:26;8.25;;;3.40;;
18610;SDS011;9435;52.122;5.502;2023-03-16T11:46:14;7.57;;;3.20;;
18610;SDS011;9435;52.122;5.502;2023-03-16T11:48:46;9.55;;;3.35;;
18610;SDS011;9435;52.122;5.502;2023-03-16T11:51:30;7.93;;;2.95;;
18610;SDS011;9435;52.122;5.502;2023-03-16T11:54:16;6.05;;;3.00;;
18610;SDS011;9435;52.122;5.502;2023-03-16T11:56:58;7.35;;;3.42;;
18610;SDS011;9435;52.122;5.502;2023-03-16T11:59:38;9.18;;;3.10;;
18610;SDS011;9435;52.122;5.502;2023-03-16T12:02:37;6.95;;;3.30;;
18610;SDS011;9435;52.122;5.502;2023-03-16T12:08:13;8.25;;;3.28;;
18610;SDS011;9435;52.122;5.502;2023-03-16T12:10:59;6.45;;;3.00;;
18610;SDS011;9435;52.122;5.502;2023-03-16T12:13:38;6.00;;;3.30;;
18610;SDS011;9435;52.122;5.502;2023-03-16T12:16:18;6.82;;;3.38;;
18610;SDS011;9435;52.122;5.502;2023-03-16T12:18:49;5.85;;;3.22;;
18610;SDS011;9435;52.122;5.502;2023-03-16T12:21:20;8.30;;;3.50;;
18610;SDS011;9435;52.122;5.502;2023-03-16T12:23:52;7.50;;;3.38;;
18610;SDS011;9435;52.122;5.502;2023-03-16T12:26:20;7.07;;;3.47;;
18610;SDS011;9435;52.122;5.502;2023-03-16T12:28:53;7.35;;;3.28;;
18610;SDS011;9435;52.122;5.502;2023-03-16T12:31:26;5.88;;;2.95;;
18610;SDS011;9435;52.122;5.502;2023-03-16T12:34:03;9.80;;;3.15;;
18610;SDS011;9435;52.122;5.502;2023-03-16T12:39:38;7.50;;;3.25;;
18610;SDS011;9435;52.122;5.502;2023-03-16T12:42:26;7.45;;;3.10;;
18610;SDS011;9435;52.122;5.502;2023-03-16T12:45:06;7.18;;;3.03;;
18610;SDS011;9435;52.122;5.502;2023-03-16T12:47:43;9.77;;;2.80;;
18610;SDS011;9435;52.122;5.502;2023-03-16T12:50:16;6.60;;;2.72;;
18610;SDS011;9435;52.122;5.502;2023-03-16T12:52:45;6.90;;;2.88;;
18610;SDS011;9435;52.122;5.502;2023-03-16T12:55:14;5.82;;;2.70;;
18610;SDS011;9435;52.122;5.502;2023-03-16T12:57:43;7.40;;;2.75;;
18610;SDS011;9435;52.122;5.502;2023-03-16T13:00:12;6.70;;;2.80;;
18610;SDS011;9435;52.122;5.502;2023-03-16T13:02:41;5.53;;;2.60;;
18610;SDS011;9435;52.122;5.502;2023-03-16T13:05:16;5.65;;;2.60;;
18610;SDS011;9435;52.122;5.502;2023-03-16T13:08:02;5.95;;;2.70;;
18610;SDS011;9435;52.122;5.502;2023-03-16T13:10:32;8.13;;;2.70;;
18610;SDS011;9435;52.122;5.502;2023-03-16T13:13:06;4.68;;;2.50;;
18610;SDS011;9435;52.122;5.502;2023-03-16T13:15:35;5.75;;;2.75;;
18610;SDS011;9435;52.122;5.502;2023-03-16T13:18:18;6.38;;;2.40;;
18610;SDS011;9435;52.122;5.502;2023-03-16T13:20:50;6.10;;;2.70;;
18610;SDS011;9435;52.122;5.502;2023-03-16T13:23:20;4.85;;;2.53;;
18610;SDS011;9435;52.122;5.502;2023-03-16T13:26:04;7.05;;;2.88;;
18610;SDS011;9435;52.122;5.502;2023-03-16T13:28:38;6.05;;;2.80;;
18610;SDS011;9435;52.122;5.502;2023-03-16T13:31:05;7.75;;;2.97;;
18610;SDS011;9435;52.122;5.502;2023-03-16T13:33:56;5.28;;;2.70;;
18610;SDS011;9435;52.122;5.502;2023-03-16T13:36:25;5.80;;;2.83;;
18610;SDS011;9435;52.122;5.502;2023-03-16T13:38:54;6.97;;;2.90;;
18610;SDS011;9435;52.122;5.502;2023-03-16T13:41:22;6.13;;;2.97;;
18610;SDS011;9435;52.122;5.502;2023-03-16T13:43:50;6.15;;;3.00;;
18610;SDS011;9435;52.122;5.502;2023-03-16T13:46:17;6.75;;;3.00;;
18610;SDS011;9435;52.122;5.502;2023-03-16T13:48:46;7.93;;;2.83;;
18610;SDS011;9435;52.122;5.502;2023-03-16T13:51:17;6.43;;;3.17;;
18610;SDS011;9435;52.122;5.502;2023-03-16T13:53:47;4.88;;;3.00;;
18610;SDS011;9435;52.122;5.502;2023-03-16T13:56:16;6.38;;;2.80;;
18610;SDS011;9435;52.122;5.502;2023-03-16T13:58:46;7.35;;;2.63;;
18610;SDS011;9435;52.122;5.502;2023-03-16T14:01:17;5.93;;;2.80;;
18610;SDS011;9435;52.122;5.502;2023-03-16T14:03:50;10.18;;;3.00;;
18610;SDS011;9435;52.122;5.502;2023-03-16T14:06:22;5.80;;;2.78;;
18610;SDS011;9435;52.122;5.502;2023-03-16T14:08:51;8.27;;;2.60;;
18610;SDS011;9435;52.122;5.502;2023-03-16T14:11:27;6.82;;;2.70;;
18610;SDS011;9435;52.122;5.502;2023-03-16T14:13:55;9.80;;;2.10;;
18610;SDS011;9435;52.122;5.502;2023-03-16T14:16:23;5.90;;;2.10;;
18610;SDS011;9435;52.122;5.502;2023-03-16T14:18:55;4.55;;;1.45;;
18610;SDS011;9435;52.122;5.502;2023-03-16T14:21:28;7.60;;;2.00;;
18610;SDS011;9435;52.122;5.502;2023-03-16T14:23:58;4.57;;;1.90;;
18610;SDS011;9435;52.122;5.502;2023-03-16T14:26:37;5.80;;;1.80;;
18610;SDS011;9435;52.122;5.502;2023-03-16T14:29:07;4.65;;;1.80;;
18610;SDS011;9435;52.122;5.502;2023-03-16T14:31:40;5.70;;;1.95;;
18610;SDS011;9435;52.122;5.502;2023-03-16T14:34:18;6.15;;;2.10;;
18610;SDS011;9435;52.122;5.502;2023-03-16T14:36:48;6.63;;;1.73;;
18610;SDS011;9435;52.122;5.502;2023-03-16T14:39:18;3.67;;;1.70;;
18610;SDS011;9435;52.122;5.502;2023-03-16T14:41:47;6.93;;;1.83;;
18610;SDS011;9435;52.122;5.502;2023-03-16T14:44:19;4.15;;;1.92;;
18610;SDS011;9435;52.122;5.502;2023-03-16T14:46:48;5.38;;;1.80;;
18610;SDS011;9435;52.122;5.502;2023-03-16T14:49:21;4.60;;;1.75;;
18610;SDS011;9435;52.122;5.502;2023-03-16T14:51:53;6.50;;;1.80;;
18610;SDS011;9435;52.122;5.502;2023-03-16T14:54:24;3.83;;;1.60;;
18610;SDS011;9435;52.122;5.502;2023-03-16T14:56:53;4.05;;;1.70;;
18610;SDS011;9435;52.122;5.502;2023-03-16T14:59:20;3.45;;;1.80;;
18610;SDS011;9435;52.122;5.502;2023-03-16T15:01:48;4.00;;;1.88;;
18610;SDS011;9435;52.122;5.502;2023-03-16T15:04:16;5.43;;;1.77;;
18610;SDS011;9435;52.122;5.502;2023-03-16T15:06:45;2.72;;;1.50;;
18610;SDS011;9435;52.122;5.502;2023-03-16T15:09:18;6.18;;;1.60;;
18610;SDS011;9435;52.122;5.502;2023-03-16T15:11:57;3.67;;;1.48;;
18610;SDS011;9435;52.122;5.502;2023-03-16T15:14:24;3.25;;;1.38;;
18610;SDS011;9435;52.122;5.502;2023-03-16T15:17:08;3.83;;;1.40;;